createdAt,value
2022-11-28T07:10:19.860Z,53.40
2022-11-28T07:13:01.226Z,66.43
2022-11-28T07:15:36.371Z,63.65
2022-11-28T07:18:09.188Z,67.15
2022-11-28T07:20:41.748Z,63.75
2022-11-28T07:23:14.632Z,59.50
2022-11-28T07:25:47.222Z,65.97
2022-11-28T07:28:23.287Z,58.67
2022-11-28T07:31:02.810Z,61.53
2022-11-28T07:33:35.758Z,63.27
2022-11-28T07:36:12.788Z,57.67
2022-11-28T07:39:06.514Z,71.50
2022-11-28T07:41:39.060Z,74.75
2022-11-28T07:44:13.121Z,69.03
2022-11-28T07:46:46.924Z,67.55
2022-11-28T07:49:22.771Z,67.28
2022-11-28T07:51:58.891Z,84.03
2022-11-28T07:54:31.912Z,77.82
2022-11-28T07:57:12.025Z,85.10
2022-11-28T07:59:46.061Z,74.78
2022-11-28T08:02:18.963Z,83.53
2022-11-28T08:04:55.220Z,82.05
2022-11-28T08:07:28.058Z,94.70
2022-11-28T08:10:00.936Z,73.75
2022-11-28T08:12:33.496Z,79.38
2022-11-28T08:15:06.545Z,83.55
2022-11-28T08:17:39.186Z,74.53
2022-11-28T08:20:12.425Z,88.93
2022-11-28T08:22:44.947Z,84.93
2022-11-28T08:25:17.792Z,82.00
2022-11-28T08:27:50.310Z,78.47
2022-11-28T08:30:23.310Z,77.25
2022-11-28T08:32:55.942Z,79.93
2022-11-28T08:35:28.986Z,76.88
2022-11-28T08:38:02.227Z,82.72
2022-11-28T08:40:35.132Z,79.63
2022-11-28T08:43:08.194Z,82.68
2022-11-28T08:45:41.095Z,86.75
2022-11-28T08:48:13.695Z,68.78
2022-11-28T08:50:50.166Z,69.00
2022-11-28T08:53:23.167Z,68.40
2022-11-28T08:55:56.243Z,73.82
2022-11-28T08:58:28.910Z,64.63
2022-11-28T09:01:01.901Z,60.35
2022-11-28T09:03:34.613Z,65.32
2022-11-28T09:06:07.657Z,67.55
2022-11-28T09:08:40.458Z,67.93
2022-11-28T09:11:17.479Z,64.18
2022-11-28T09:13:50.749Z,62.13
2022-11-28T09:16:23.564Z,64.15
2022-11-28T09:18:59.088Z,66.95
2022-11-28T09:21:31.916Z,61.45
2022-11-28T09:24:04.774Z,63.35
2022-11-28T09:26:37.570Z,63.88
2022-11-28T09:29:10.148Z,57.25
2022-11-28T09:31:47.091Z,53.38
2022-11-28T09:34:20.193Z,54.70
2022-11-28T09:36:53.064Z,62.53
2022-11-28T09:39:35.814Z,50.30
2022-11-28T09:42:43.928Z,54.30
2022-11-28T09:45:22.056Z,58.08
2022-11-28T09:48:01.350Z,55.25
2022-11-28T09:53:46.709Z,62.08
2022-11-28T09:56:22.535Z,56.95
2022-11-28T09:59:04.986Z,67.97
2022-11-28T10:02:05.033Z,62.67
2022-11-28T10:04:37.947Z,60.45
2022-11-28T10:07:42.717Z,61.08
2022-11-28T10:10:44.216Z,63.47
2022-11-28T10:13:59.759Z,58.15
2022-11-28T10:16:53.245Z,54.30
2022-11-28T10:23:04.671Z,58.72
2022-11-28T10:25:51.133Z,59.08
2022-11-28T10:28:34.629Z,63.92
2022-11-28T10:31:36.514Z,62.55
2022-11-28T10:34:17.989Z,58.60
2022-11-28T10:37:54.573Z,65.85
2022-11-28T10:40:59.863Z,53.63
2022-11-28T10:43:40.863Z,54.80
2022-11-28T10:46:44.564Z,57.95
2022-11-28T10:49:53.393Z,50.08
2022-11-28T10:52:44.275Z,40.47
2022-11-28T10:55:49.947Z,44.92
2022-11-28T10:59:07.067Z,49.03
2022-11-28T11:01:43.752Z,48.85
2022-11-28T11:04:26.904Z,52.42
2022-11-28T11:07:22.765Z,50.00
2022-11-28T11:10:22.007Z,44.95
2022-11-28T11:12:54.780Z,47.20
2022-11-28T11:15:32.464Z,49.25
2022-11-28T11:18:18.934Z,43.67
2022-11-28T11:20:52.325Z,45.10
2022-11-28T11:23:24.865Z,46.70
2022-11-28T11:25:58.677Z,44.72
2022-11-28T11:28:39.905Z,49.10
2022-11-28T11:31:23.504Z,51.45
2022-11-28T11:34:31.245Z,52.28
2022-11-28T11:38:04.782Z,40.88
2022-11-28T11:40:40.099Z,38.30
2022-11-28T11:43:32.086Z,46.53
2022-11-28T11:46:16.225Z,41.75
2022-11-28T11:48:53.592Z,45.90
2022-11-28T11:51:36.515Z,45.53
2022-11-28T11:54:14.591Z,37.22
2022-11-28T11:57:00.601Z,48.20
2022-11-28T11:59:47.429Z,37.45
2022-11-28T12:02:36.386Z,37.90
2022-11-28T12:05:18.726Z,42.28
2022-11-28T12:08:15.092Z,39.90
2022-11-28T12:11:06.633Z,40.60
2022-11-28T12:13:39.321Z,44.20
2022-11-28T12:16:43.809Z,40.50
2022-11-28T12:20:01.891Z,47.88
2022-11-28T12:22:57.797Z,47.30
2022-11-28T12:25:59.637Z,48.08
2022-11-28T12:28:44.661Z,51.00
2022-11-28T12:31:17.167Z,37.50
2022-11-28T12:34:14.687Z,36.53
2022-11-28T12:37:11.939Z,39.13
2022-11-28T12:39:44.988Z,41.85
2022-11-28T12:42:46.619Z,42.97
2022-11-28T12:45:28.651Z,39.25
2022-11-28T12:48:22.091Z,48.80
2022-11-28T12:51:06.958Z,45.00
2022-11-28T12:53:45.546Z,41.97
2022-11-28T12:56:48.673Z,46.67
2022-11-28T12:59:46.972Z,46.60
2022-11-28T13:02:38.626Z,44.33
2022-11-28T13:05:38.655Z,38.25
2022-11-28T13:08:43.311Z,46.92
2022-11-28T13:12:03.987Z,38.70
2022-11-28T13:15:00.522Z,43.70
2022-11-28T13:17:43.819Z,38.85
2022-11-28T13:20:22.814Z,40.15
2022-11-28T13:23:28.949Z,37.80
2022-11-28T13:26:04.965Z,37.15
2022-11-28T13:28:50.612Z,41.55
2022-11-28T13:31:42.075Z,37.97
2022-11-28T13:34:19.502Z,34.42
2022-11-28T13:40:02.273Z,38.63
2022-11-28T13:43:07.585Z,39.85
2022-11-28T13:51:36.751Z,38.92
2022-11-28T13:54:21.567Z,36.03
2022-11-28T13:57:21.541Z,32.28
2022-11-28T14:02:50.695Z,36.28
2022-11-28T14:05:37.853Z,38.05
2022-11-28T14:08:28.343Z,39.28
2022-11-28T14:11:34.541Z,40.42
2022-11-28T14:14:26.352Z,41.47
2022-11-28T14:17:26.462Z,41.15
2022-11-28T14:20:30.608Z,36.75
2022-11-28T14:23:33.688Z,40.40
2022-11-28T14:26:20.408Z,39.65
2022-11-28T14:28:53.887Z,44.25
2022-11-28T14:31:35.826Z,42.05
2022-11-28T14:34:43.336Z,39.95
2022-11-28T14:38:00.365Z,39.40
2022-11-28T14:41:01.054Z,40.75
2022-11-28T14:43:37.970Z,56.53
2022-11-28T14:46:24.605Z,39.35
2022-11-28T14:49:03.102Z,39.03
2022-11-28T14:51:49.344Z,37.75
2022-11-28T14:54:35.460Z,40.70
2022-11-28T14:57:29.062Z,32.22
2022-11-28T15:00:16.062Z,26.42
2022-11-28T15:03:25.108Z,40.60
2022-11-28T15:06:11.276Z,37.78
2022-11-28T15:09:07.978Z,33.50
2022-11-28T15:11:59.047Z,36.22
2022-11-28T15:14:35.436Z,42.65
2022-11-28T15:17:13.899Z,41.28
2022-11-28T15:19:49.404Z,40.63
2022-11-28T15:22:31.945Z,44.25
2022-11-28T15:25:05.317Z,50.78
2022-11-28T15:27:37.876Z,43.72
2022-11-28T15:30:19.701Z,44.35
2022-11-28T15:33:12.981Z,46.70
2022-11-28T15:36:02.407Z,46.67
2022-11-28T15:38:37.169Z,53.83
2022-11-28T15:41:10.634Z,46.17
2022-11-28T15:43:46.080Z,46.28
2022-11-28T15:46:32.785Z,43.20
2022-11-28T15:49:07.300Z,46.00
2022-11-28T15:51:40.152Z,54.80
2022-11-28T15:54:43.525Z,46.38
2022-11-28T15:57:23.919Z,46.92
2022-11-28T15:59:57.005Z,54.33
2022-11-28T16:02:35.766Z,44.78
2022-11-28T16:05:25.492Z,53.88
2022-11-28T16:07:58.683Z,54.15
2022-11-28T16:10:37.947Z,52.28
2022-11-28T16:13:14.301Z,49.30
2022-11-28T16:15:50.331Z,49.45
2022-11-28T16:18:25.743Z,52.85
2022-11-28T16:21:00.048Z,57.55
2022-11-28T16:23:35.368Z,60.28
2022-11-28T16:26:22.691Z,58.45
2022-11-28T16:29:07.737Z,57.53
2022-11-28T16:31:44.141Z,55.65
2022-11-28T16:34:16.976Z,49.15
2022-11-28T16:36:50.247Z,49.35
2022-11-28T16:39:23.958Z,62.22
2022-11-28T16:42:17.321Z,51.60
2022-11-28T16:44:50.212Z,51.83
2022-11-28T16:47:26.268Z,59.22
2022-11-28T16:50:17.735Z,61.33
2022-11-28T16:52:50.320Z,48.72
2022-11-28T16:55:29.130Z,50.70
2022-11-28T16:58:14.756Z,55.83
2022-11-28T17:01:05.515Z,56.38
2022-11-28T17:06:21.113Z,51.55
2022-11-28T17:08:53.671Z,59.30
2022-11-28T17:11:29.616Z,59.00
2022-11-28T17:14:11.811Z,45.33
2022-11-28T17:16:46.375Z,53.60
2022-11-28T17:19:18.958Z,46.47
2022-11-28T17:21:59.113Z,57.30
2022-11-28T17:24:35.976Z,47.85
2022-11-28T17:27:12.115Z,51.10
2022-11-28T17:29:44.782Z,53.35
2022-11-28T17:32:18.003Z,49.53
2022-11-28T17:34:50.562Z,56.17
2022-11-28T17:37:23.423Z,52.65
2022-11-28T17:40:14.579Z,60.17
2022-11-28T17:42:47.396Z,53.95
2022-11-28T17:45:22.272Z,56.60
2022-11-28T17:47:59.211Z,43.65
2022-11-28T17:50:34.811Z,62.50
2022-11-28T17:53:09.187Z,44.15
2022-11-28T17:55:47.031Z,45.08
2022-11-28T17:58:23.420Z,50.97
2022-11-28T18:01:00.586Z,50.28
2022-11-28T18:04:04.766Z,52.35
2022-11-28T18:06:38.822Z,48.65
2022-11-28T18:09:12.904Z,45.13
2022-11-28T18:11:46.839Z,38.22
2022-11-28T18:14:26.133Z,44.10
2022-11-28T18:16:58.773Z,45.15
2022-11-28T18:19:31.656Z,56.42
2022-11-28T18:22:04.156Z,44.58
2022-11-28T18:24:37.509Z,43.70
2022-11-28T18:27:10.033Z,44.83
2022-11-28T18:29:43.143Z,49.50
2022-11-28T18:32:15.864Z,46.40
2022-11-28T18:34:48.670Z,45.70
2022-11-28T18:37:21.157Z,46.35
2022-11-28T18:39:53.940Z,46.45
2022-11-28T18:42:26.632Z,45.15
2022-11-28T18:44:59.435Z,49.10
2022-11-28T18:47:31.950Z,43.50
2022-11-28T18:50:07.704Z,49.08
2022-11-28T18:52:40.524Z,49.33
2022-11-28T18:55:13.347Z,54.67
2022-11-28T18:57:45.901Z,51.90
2022-11-28T19:00:25.745Z,47.13
2022-11-28T19:03:13.206Z,52.70
2022-11-28T19:05:49.112Z,49.78
2022-11-28T19:08:22.302Z,53.83
2022-11-28T19:10:55.118Z,49.95
2022-11-28T19:13:34.541Z,45.03
2022-11-28T19:16:09.611Z,45.53
2022-11-28T19:18:42.693Z,50.22
2022-11-28T19:21:19.922Z,52.17
2022-11-28T19:23:54.723Z,54.70
2022-11-28T19:26:30.035Z,53.58
2022-11-28T19:29:02.846Z,48.47
2022-11-28T19:31:39.164Z,57.78
2022-11-28T19:34:36.647Z,55.75
2022-11-28T19:37:33.123Z,48.50
2022-11-28T19:40:06.392Z,44.80
2022-11-28T19:42:39.275Z,53.45
2022-11-28T19:45:11.873Z,44.72
2022-11-28T19:47:46.588Z,51.35
2022-11-28T19:50:19.116Z,49.38
2022-11-28T19:52:51.924Z,47.70
2022-11-28T19:55:24.441Z,57.30
2022-11-28T19:57:57.254Z,48.95
2022-11-28T20:00:29.720Z,51.28
2022-11-28T20:03:03.160Z,45.38
2022-11-28T20:05:37.257Z,50.95
2022-11-28T20:08:13.226Z,48.72
2022-11-28T20:10:46.521Z,46.78
2022-11-28T20:13:19.334Z,49.88
2022-11-28T20:15:51.899Z,48.45
2022-11-28T20:18:24.699Z,50.83
2022-11-28T20:21:23.395Z,50.90
2022-11-28T20:23:59.613Z,49.55
2022-11-28T20:26:36.177Z,47.63
2022-11-28T20:29:13.961Z,53.95
2022-11-28T20:31:47.873Z,49.95
2022-11-28T20:34:20.828Z,44.50
2022-11-28T20:36:53.714Z,44.60
2022-11-28T20:39:26.551Z,56.22
2022-11-28T20:41:59.770Z,46.45
2022-11-28T20:44:32.563Z,51.70
2022-11-28T20:47:06.323Z,41.90
2022-11-28T20:49:39.174Z,49.50
2022-11-28T20:52:11.696Z,52.08
2022-11-28T20:54:47.220Z,49.13
2022-11-28T20:57:21.835Z,47.53
2022-11-28T20:59:57.126Z,46.00
2022-11-28T21:02:32.257Z,42.92
2022-11-28T21:05:06.118Z,38.63
2022-11-28T21:07:41.545Z,46.13
2022-11-28T21:10:14.577Z,45.72
2022-11-28T21:12:47.333Z,47.00
2022-11-28T21:15:29.432Z,42.92
2022-11-28T21:18:11.095Z,43.22
2022-11-28T21:20:46.158Z,47.13
2022-11-28T21:23:18.783Z,51.47
2022-11-28T21:25:51.662Z,47.85
2022-11-28T21:28:24.355Z,47.45
2022-11-28T21:31:00.262Z,47.78
2022-11-28T21:33:32.846Z,45.35
2022-11-28T21:36:06.666Z,45.75
2022-11-28T21:38:39.190Z,44.78
2022-11-28T21:41:12.070Z,49.70
2022-11-28T21:43:47.880Z,53.40
2022-11-28T21:46:22.513Z,50.20
2022-11-28T21:48:58.757Z,47.90
2022-11-28T21:51:40.274Z,50.10
2022-11-28T21:54:13.336Z,45.50
2022-11-28T21:56:48.091Z,56.90
2022-11-28T21:59:26.334Z,48.40
2022-11-28T22:02:11.798Z,46.22
2022-11-28T22:05:01.032Z,52.50
2022-11-28T22:07:36.094Z,54.10
2022-11-28T22:10:12.775Z,47.08
2022-11-28T22:12:45.617Z,49.75
2022-11-28T22:15:18.187Z,46.88
2022-11-28T22:18:00.435Z,53.13
2022-11-28T22:20:43.620Z,50.03
2022-11-28T22:23:21.090Z,54.75
2022-11-28T22:25:54.908Z,52.72
2022-11-28T22:28:33.507Z,54.08
2022-11-28T22:31:25.901Z,55.10
2022-11-28T22:33:59.056Z,52.42
2022-11-28T22:36:33.491Z,53.70
2022-11-28T22:39:11.504Z,47.58
2022-11-28T22:41:44.075Z,52.20
2022-11-28T22:44:16.879Z,46.97
2022-11-28T22:46:49.687Z,55.92
2022-11-28T22:49:22.605Z,54.13
2022-11-28T22:51:55.112Z,44.65
2022-11-28T22:54:27.899Z,53.47
2022-11-28T22:57:00.503Z,52.70
2022-11-28T22:59:35.271Z,55.92
2022-11-28T23:02:09.685Z,48.38
2022-11-28T23:04:42.896Z,50.70
2022-11-28T23:07:16.063Z,46.13
2022-11-28T23:09:50.631Z,48.72
2022-11-28T23:12:23.249Z,49.75
2022-11-28T23:14:56.063Z,51.75
2022-11-28T23:17:32.300Z,46.72
2022-11-28T23:20:05.881Z,57.33
2022-11-28T23:22:38.423Z,49.95
2022-11-28T23:25:11.207Z,45.72
2022-11-28T23:27:43.704Z,50.15
2022-11-28T23:30:16.584Z,53.28
2022-11-28T23:32:49.235Z,52.17
2022-11-28T23:35:22.019Z,45.63
2022-11-28T23:37:54.539Z,55.78
2022-11-28T23:40:28.707Z,50.47
2022-11-28T23:43:01.233Z,46.47
2022-11-28T23:45:34.015Z,53.55
2022-11-28T23:48:06.672Z,58.13
2022-11-28T23:50:39.544Z,50.80
2022-11-28T23:53:12.092Z,58.13
2022-11-28T23:55:44.983Z,52.90
2022-11-28T23:58:17.917Z,56.58
